Terminal Aerodrome Forecast
Issued by NWS

Current Version | Previous Version | Text Only | Print | Product List | Glossary On
Versions: 1 2 3 4 5 6 7 8 9 10 11 12 13 14 15 16 17 18 19 20 21 22 23 24 25 26 27 28
000
FTUS44 KOUN 261729
TAFHBR
TAF
KHBR 261729Z 2618/2718 01015G23KT P6SM BKN100
     FM270300 04010KT P6SM OVC100
     FM271200 04012KT P6SM OVC030
      TEMPO 2712/2716 2SM -SN OVC020
      AMD NOT SKED=

USA.gov is the U.S. government's official web portal to all federal, state and local government web resources and services.